createdAt,value
2019-04-01T00:00:53.566Z,78.94
2019-04-01T00:01:53.583Z,78.94
2019-04-01T00:02:53.579Z,79.05
2019-04-01T00:03:53.539Z,79.29
2019-04-01T00:04:53.529Z,79.29
2019-04-01T00:05:53.513Z,79.49
2019-04-01T00:06:53.524Z,80.11
2019-04-01T00:07:53.488Z,79.91
2019-04-01T00:08:53.483Z,79.70
2019-04-01T00:09:53.466Z,79.77
2019-04-01T00:10:53.455Z,79.60
2019-04-01T00:11:53.472Z,79.60
2019-04-01T00:12:53.434Z,79.91
2019-04-01T00:13:53.422Z,79.80
2019-04-01T00:14:53.412Z,80.43
2019-04-01T00:15:53.406Z,80.32
2019-04-01T00:16:53.416Z,80.63
2019-04-01T00:17:53.385Z,80.53
2019-04-01T00:19:03.031Z,80.53
2019-04-01T00:19:54.356Z,80.43
2019-04-01T00:20:53.346Z,80.11
2019-04-01T00:21:53.362Z,80.26
2019-04-01T00:22:53.437Z,80.67
2019-04-01T00:23:53.313Z,80.05
2019-04-01T00:24:53.320Z,80.26
2019-04-01T00:25:53.295Z,80.53
2019-04-01T00:26:53.306Z,81.09
2019-04-01T00:27:53.273Z,81.19
2019-04-01T00:28:53.259Z,80.88
2019-04-01T00:29:53.249Z,81.02
2019-04-01T00:30:53.233Z,80.88
2019-04-01T00:31:53.253Z,80.46
2019-04-01T00:32:53.217Z,80.46
2019-04-01T00:33:53.201Z,80.36
2019-04-01T00:34:53.191Z,80.46
2019-04-01T00:35:53.179Z,80.57
2019-04-01T00:36:53.194Z,80.57
2019-04-01T00:37:53.155Z,80.88
2019-04-01T00:38:53.155Z,81.09
2019-04-01T00:39:53.132Z,80.46
2019-04-01T00:40:53.121Z,80.60
2019-04-01T00:41:53.136Z,80.71
2019-04-01T00:42:53.097Z,80.50
2019-04-01T00:43:53.090Z,80.40
2019-04-01T00:44:53.078Z,80.29
2019-04-01T00:45:53.073Z,80.50
2019-04-01T00:46:53.069Z,80.91
2019-04-01T00:47:53.072Z,81.33
2019-04-01T00:48:53.035Z,81.33
2019-04-01T00:49:53.022Z,81.33
2019-04-01T00:50:53.020Z,81.33
2019-04-01T00:51:53.000Z,81.54
2019-04-01T00:52:53.118Z,80.91
2019-04-01T00:53:52.981Z,80.50
2019-04-01T00:54:52.968Z,80.81
2019-04-01T00:55:52.957Z,80.60
2019-04-01T00:56:52.945Z,80.54
2019-04-01T00:57:52.970Z,80.08
2019-04-01T00:58:52.924Z,80.60
2019-04-01T00:59:52.912Z,80.54
2019-04-01T01:00:52.902Z,81.16
2019-04-01T01:01:52.891Z,81.05
2019-04-01T01:02:52.909Z,81.16
2019-04-01T01:03:52.870Z,81.16
2019-04-01T01:04:52.857Z,81.16
2019-04-01T01:05:52.848Z,80.91
2019-04-01T01:06:52.838Z,81.16
2019-04-01T01:07:52.851Z,81.16
2019-04-01T01:08:52.811Z,80.74
2019-04-01T01:09:52.800Z,81.05
2019-04-01T01:10:52.789Z,81.57
2019-04-01T01:11:52.782Z,81.54
2019-04-01T01:12:52.795Z,81.26
2019-04-01T01:13:52.763Z,81.02
2019-04-01T01:14:52.745Z,81.43
2019-04-01T01:15:52.739Z,81.23
2019-04-01T01:16:52.724Z,81.26
2019-04-01T01:17:52.739Z,81.26
2019-04-01T01:18:52.701Z,80.95
2019-04-01T01:19:52.691Z,81.16
2019-04-01T01:20:52.683Z,81.26
2019-04-01T01:21:52.674Z,81.68
2019-04-01T01:22:52.684Z,81.57
2019-04-01T01:23:52.648Z,81.05
2019-04-01T01:24:52.635Z,81.37
2019-04-01T01:25:52.624Z,81.68
2019-04-01T01:26:52.616Z,81.78
2019-04-01T01:27:52.603Z,81.99
2019-04-01T01:28:52.617Z,81.82
2019-04-01T01:29:52.581Z,81.51
2019-04-01T01:30:52.571Z,81.61
2019-04-01T01:31:52.557Z,81.71
2019-04-01T01:32:52.548Z,81.88
2019-04-01T01:33:52.562Z,81.71
2019-04-01T01:34:52.522Z,81.92
2019-04-01T01:35:52.516Z,81.68
2019-04-01T01:36:52.501Z,81.71
2019-04-01T01:37:52.490Z,81.82
2019-04-01T01:38:52.504Z,81.82
2019-04-01T01:39:52.469Z,81.51
2019-04-01T01:40:52.461Z,81.78
2019-04-01T01:41:52.445Z,81.71
2019-04-01T01:42:52.437Z,81.82
2019-04-01T01:43:52.450Z,81.51
2019-04-01T01:44:52.418Z,81.71
2019-04-01T01:45:52.405Z,81.92
2019-04-01T01:46:52.390Z,81.71
2019-04-01T01:47:52.382Z,81.71
2019-04-01T01:48:52.394Z,81.71
2019-04-01T01:49:52.361Z,81.82
2019-04-01T01:50:52.346Z,82.27
2019-04-01T01:51:52.335Z,82.65
2019-04-01T01:52:52.326Z,82.17
2019-04-01T01:53:52.339Z,81.65
2019-04-01T01:54:52.301Z,81.85
2019-04-01T01:55:52.292Z,81.71
2019-04-01T01:56:52.283Z,82.79
2019-04-01T01:57:52.273Z,82.89
2019-04-01T01:58:52.283Z,82.27
2019-04-01T01:59:52.247Z,82.65
2019-04-01T02:00:52.235Z,82.23
2019-04-01T02:01:52.227Z,82.89
2019-04-01T02:02:52.218Z,82.54
2019-04-01T02:03:52.230Z,82.34
2019-04-01T02:04:52.193Z,82.65
2019-04-01T02:05:52.182Z,82.86
2019-04-01T02:06:52.180Z,82.44
2019-04-01T02:07:52.160Z,82.86
2019-04-01T02:08:52.173Z,83.16
2019-04-01T02:09:52.138Z,83.16
2019-04-01T02:10:52.132Z,81.92
2019-04-01T02:11:52.119Z,81.61
2019-04-01T02:12:52.104Z,82.03
2019-04-01T02:13:52.119Z,81.71
2019-04-01T02:14:52.084Z,82.13
2019-04-01T02:15:52.072Z,83.26
2019-04-01T02:16:52.059Z,82.54
2019-04-01T02:17:52.048Z,82.65
2019-04-01T02:18:52.049Z,82.65
2019-04-01T02:19:52.051Z,82.75
2019-04-01T02:20:52.013Z,82.23
2019-04-01T02:21:52.003Z,82.48
2019-04-01T02:22:51.999Z,82.65
2019-04-01T02:23:51.988Z,82.54
2019-04-01T02:24:52.000Z,82.44
2019-04-01T02:25:51.961Z,82.79
2019-04-01T02:26:51.950Z,82.89
2019-04-01T02:27:51.940Z,82.75
2019-04-01T02:28:51.934Z,82.79
2019-04-01T02:29:51.941Z,82.68
2019-04-01T02:30:51.904Z,82.79
2019-04-01T02:31:51.898Z,83.20
2019-04-01T02:32:51.888Z,82.68
2019-04-01T02:33:51.879Z,82.79
2019-04-01T02:34:51.889Z,82.58
2019-04-01T02:35:51.852Z,83.31
2019-04-01T02:36:51.849Z,83.00
2019-04-01T02:37:51.828Z,82.23
2019-04-01T02:38:51.820Z,82.75
2019-04-01T02:39:51.841Z,82.89
2019-04-01T02:40:51.796Z,82.75
2019-04-01T02:41:51.782Z,82.34
2019-04-01T02:42:51.897Z,81.82
2019-04-01T02:43:51.762Z,82.23
2019-04-01T02:44:51.776Z,82.34
2019-04-01T02:45:51.746Z,82.44
2019-04-01T02:46:51.729Z,82.17
2019-04-01T02:47:51.717Z,82.48
2019-04-01T02:48:51.710Z,82.48
2019-04-01T02:49:51.724Z,82.89
2019-04-01T02:50:51.685Z,83.86
2019-04-01T02:51:51.674Z,83.97
2019-04-01T02:52:51.658Z,84.17
2019-04-01T02:53:51.662Z,84.69
2019-04-01T02:54:51.668Z,83.76
2019-04-01T02:55:51.628Z,83.65
2019-04-01T02:56:51.613Z,83.03
2019-04-01T02:57:51.601Z,83.38
2019-04-01T02:58:51.590Z,83.28
2019-04-01T02:59:51.609Z,83.38
2019-04-01T03:00:51.578Z,83.17
2019-04-01T03:01:51.562Z,83.38
2019-04-01T03:02:51.547Z,82.97
2019-04-01T03:03:51.541Z,82.55
2019-04-01T03:04:51.552Z,82.45
2019-04-01T03:05:51.510Z,82.80
2019-04-01T03:06:51.501Z,82.80
2019-04-01T03:07:51.489Z,82.59
2019-04-01T03:08:51.488Z,82.59
2019-04-01T03:09:51.471Z,82.90
2019-04-01T03:10:51.482Z,82.80
2019-04-01T03:11:51.446Z,83.11
2019-04-01T03:12:51.443Z,83.63
2019-04-01T03:13:51.430Z,83.63
2019-04-01T03:14:51.423Z,83.01
2019-04-01T03:15:51.425Z,83.01
2019-04-01T03:16:51.388Z,82.80
2019-04-01T03:17:51.382Z,83.11
2019-04-01T03:18:51.366Z,83.11
2019-04-01T03:19:51.358Z,82.90
2019-04-01T03:20:51.393Z,82.90
2019-04-01T03:21:51.337Z,83.11
2019-04-01T03:22:51.320Z,83.01
2019-04-01T03:23:51.308Z,83.63
2019-04-01T03:24:51.296Z,83.53
2019-04-01T03:25:51.322Z,83.73
2019-04-01T03:26:51.315Z,83.42
2019-04-01T03:27:51.265Z,83.32
2019-04-01T03:28:51.253Z,83.11
2019-04-01T03:29:51.263Z,82.90
2019-04-01T03:30:51.270Z,83.01
2019-04-01T03:31:51.220Z,82.63
2019-04-01T03:32:51.210Z,83.15
2019-04-01T03:33:51.196Z,82.94
2019-04-01T03:34:51.190Z,82.63
2019-04-01T03:35:51.198Z,83.46
2019-04-01T03:36:51.168Z,82.84
2019-04-01T03:37:51.151Z,82.53
2019-04-01T03:38:51.201Z,83.70
2019-04-01T03:39:51.129Z,84.84
2019-04-01T03:40:51.145Z,84.29
2019-04-01T03:41:51.142Z,84.19
2019-04-01T03:42:51.099Z,84.60
2019-04-01T03:43:51.088Z,84.91
2019-04-01T03:44:54.802Z,84.50
2019-04-01T03:45:51.087Z,84.70
2019-04-01T03:46:51.049Z,84.39
2019-04-01T03:47:51.039Z,84.39
2019-04-01T03:48:51.028Z,83.15
2019-04-01T03:49:51.027Z,82.42
2019-04-01T03:50:51.032Z,82.77
2019-04-01T03:51:50.992Z,83.08
2019-04-01T03:52:50.981Z,82.67
2019-04-01T03:53:50.973Z,83.01
2019-04-01T03:54:50.975Z,82.87
2019-04-01T03:55:50.960Z,83.74
2019-04-01T03:56:50.964Z,83.74
2019-04-01T03:57:50.928Z,83.74
2019-04-01T03:58:50.915Z,83.01
2019-04-01T03:59:50.904Z,83.12
2019-04-01T04:00:50.892Z,83.74
2019-04-01T04:01:50.911Z,83.74
2019-04-01T04:02:50.875Z,82.91
2019-04-01T04:03:50.858Z,83.53
2019-04-01T04:04:50.851Z,83.84
2019-04-01T04:05:50.835Z,83.74
2019-04-01T04:06:50.853Z,84.89
2019-04-01T04:07:50.813Z,84.47
2019-04-01T04:08:50.802Z,83.95
2019-04-01T04:09:50.801Z,83.95
2019-04-01T04:10:50.779Z,83.53
2019-04-01T04:11:50.798Z,83.22
2019-04-01T04:12:50.761Z,83.01
2019-04-01T04:13:50.748Z,83.33
2019-04-01T04:14:51.372Z,83.33
2019-04-01T04:15:50.724Z,83.12
2019-04-01T04:16:50.738Z,83.64
2019-04-01T04:17:50.700Z,83.78
2019-04-01T04:18:50.689Z,84.82
2019-04-01T04:19:50.679Z,84.51
2019-04-01T04:20:50.669Z,84.27
2019-04-01T04:21:50.685Z,84.89
2019-04-01T04:22:50.648Z,85.41
2019-04-01T04:23:50.649Z,86.24
2019-04-01T04:24:50.625Z,85.82
2019-04-01T04:25:50.616Z,85.93
2019-04-01T04:26:50.641Z,86.24
2019-04-01T04:27:50.588Z,86.13
2019-04-01T04:28:50.580Z,85.93
2019-04-01T04:29:50.577Z,86.13
2019-04-01T04:30:50.559Z,86.13
2019-04-01T04:31:50.568Z,85.47
2019-04-01T04:32:50.543Z,86.34
2019-04-01T04:33:50.521Z,85.05
2019-04-01T04:34:50.516Z,84.64
2019-04-01T04:35:50.505Z,84.27
2019-04-01T04:36:50.513Z,84.64
2019-04-01T04:37:50.475Z,84.27
2019-04-01T04:38:50.467Z,84.27
2019-04-01T04:39:50.457Z,84.47
2019-04-01T04:40:50.448Z,84.47
2019-04-01T04:41:50.437Z,85.20
2019-04-01T04:42:50.451Z,85.10
2019-04-01T04:43:50.409Z,85.13
2019-04-01T04:44:50.398Z,84.99
2019-04-01T04:45:50.387Z,84.89
2019-04-01T04:46:50.381Z,83.89
2019-04-01T04:47:50.390Z,84.37
2019-04-01T04:48:50.354Z,84.68
2019-04-01T04:49:50.350Z,84.61
2019-04-01T04:50:50.332Z,84.20
2019-04-01T04:51:50.320Z,84.41
2019-04-01T04:52:50.339Z,84.72
2019-04-01T04:53:50.368Z,84.61
2019-04-01T04:54:50.290Z,84.61
2019-04-01T04:55:50.275Z,84.51
2019-04-01T04:56:50.263Z,84.82
2019-04-01T04:57:50.278Z,84.82
2019-04-01T04:58:50.241Z,84.86
2019-04-01T04:59:50.229Z,85.13
2019-04-01T05:00:50.219Z,85.38
2019-04-01T05:01:50.211Z,84.96
2019-04-01T05:02:50.248Z,84.75
2019-04-01T05:03:50.197Z,84.86
2019-04-01T05:04:50.178Z,84.75
2019-04-01T05:05:50.170Z,85.28
2019-04-01T05:06:50.158Z,86.42
2019-04-01T05:07:50.167Z,86.32
2019-04-01T05:08:50.142Z,85.80
2019-04-01T05:09:50.123Z,86.11
2019-04-01T05:10:50.109Z,86.42
2019-04-01T05:11:50.095Z,86.17
2019-04-01T05:12:50.111Z,86.27
2019-04-01T05:13:50.075Z,86.27
2019-04-01T05:14:50.063Z,85.44
2019-04-01T05:15:50.051Z,84.92
2019-04-01T05:16:50.042Z,85.03
2019-04-01T05:17:50.059Z,84.92
2019-04-01T05:18:50.019Z,84.82
2019-04-01T05:19:50.007Z,85.03
2019-04-01T05:20:49.996Z,84.86
2019-04-01T05:21:49.990Z,85.38
2019-04-01T05:22:50.002Z,84.86
2019-04-01T05:23:49.964Z,86.21
2019-04-01T05:24:49.949Z,86.27
2019-04-01T05:25:49.938Z,85.90
2019-04-01T05:26:49.928Z,86.52
2019-04-01T05:27:49.943Z,85.38
2019-04-01T05:28:49.904Z,85.28
2019-04-01T05:29:49.895Z,84.82
2019-04-01T05:30:49.882Z,84.44
2019-04-01T05:31:49.871Z,84.65
2019-04-01T05:32:49.869Z,84.61
2019-04-01T05:33:55.589Z,84.86
2019-04-01T05:34:50.840Z,84.75
2019-04-01T05:35:49.829Z,84.65
2019-04-01T05:36:49.815Z,85.38
2019-04-01T05:37:49.808Z,86.32
2019-04-01T05:38:49.820Z,86.11
2019-04-01T05:39:49.783Z,86.52
2019-04-01T05:40:49.771Z,85.44
2019-04-01T05:41:49.762Z,84.72
2019-04-01T05:42:49.750Z,85.03
2019-04-01T05:43:49.770Z,85.03
2019-04-01T05:44:49.728Z,84.92
2019-04-01T05:45:49.714Z,84.61
2019-04-01T05:46:49.704Z,84.99
2019-04-01T05:47:49.696Z,84.61
2019-04-01T05:48:49.711Z,84.37
2019-04-01T05:49:49.670Z,84.30
2019-04-01T05:50:49.669Z,84.61
2019-04-01T05:51:49.648Z,84.37
2019-04-01T05:52:49.641Z,84.47
2019-04-01T05:53:49.658Z,84.68
2019-04-01T05:54:49.615Z,84.78
2019-04-01T05:55:49.604Z,84.89
2019-04-01T05:56:49.595Z,84.78
2019-04-01T05:57:49.581Z,84.78
2019-04-01T05:58:49.596Z,85.10
2019-04-01T05:59:49.558Z,85.30
2019-04-01T06:00:49.547Z,85.20
2019-04-01T06:01:49.541Z,85.20
2019-04-01T06:02:49.523Z,85.10
2019-04-01T06:03:49.541Z,85.61
2019-04-01T06:04:49.505Z,85.61
2019-04-01T06:05:49.490Z,85.88
2019-04-01T06:06:49.480Z,85.78
2019-04-01T06:07:49.468Z,86.26
2019-04-01T06:08:49.484Z,85.36
2019-04-01T06:09:49.446Z,85.53
2019-04-01T06:10:49.435Z,85.26
2019-04-01T06:11:49.424Z,85.12
2019-04-01T06:12:49.412Z,84.81
2019-04-01T06:13:49.427Z,84.70
2019-04-01T06:14:49.393Z,85.02
2019-04-01T06:15:49.378Z,85.43
2019-04-01T06:16:49.376Z,85.53
2019-04-01T06:17:49.361Z,85.60
2019-04-01T06:18:49.428Z,84.77
2019-04-01T06:19:49.335Z,85.08
2019-04-01T06:20:49.330Z,84.77
2019-04-01T06:21:49.312Z,84.56
2019-04-01T06:22:49.302Z,84.52
2019-04-01T06:23:49.324Z,84.56
2019-04-01T06:24:49.279Z,84.52
2019-04-01T06:25:49.266Z,84.63
2019-04-01T06:26:49.264Z,83.80
2019-04-01T06:27:49.244Z,83.69
2019-04-01T06:28:49.238Z,83.76
2019-04-01T06:29:49.247Z,83.24
2019-04-01T06:30:49.210Z,83.55
2019-04-01T06:31:49.200Z,83.97
2019-04-01T06:32:49.285Z,84.28
2019-04-01T06:33:49.180Z,84.48
2019-04-01T06:34:52.926Z,85.17
2019-04-01T06:35:49.154Z,84.86
2019-04-01T06:36:49.144Z,85.17
2019-04-01T06:37:49.132Z,85.06
2019-04-01T06:38:49.120Z,85.86
2019-04-01T06:39:49.134Z,86.00
2019-04-01T06:40:49.106Z,85.96
2019-04-01T06:41:49.088Z,85.75
2019-04-01T06:42:49.080Z,85.96
2019-04-01T06:43:49.066Z,86.27
2019-04-01T06:44:49.080Z,85.13
2019-04-01T06:45:49.041Z,85.13
2019-04-01T06:46:49.032Z,84.99
2019-04-01T06:47:49.020Z,85.09
2019-04-01T06:48:49.010Z,84.88
2019-04-01T06:49:49.024Z,84.58
2019-04-01T06:50:48.985Z,84.68
2019-04-01T06:51:48.977Z,83.85
2019-04-01T06:52:48.967Z,83.91
2019-04-01T06:53:48.957Z,84.43
2019-04-01T06:54:48.968Z,84.53
2019-04-01T06:55:48.929Z,83.81
2019-04-01T06:56:48.921Z,83.46
2019-04-01T06:57:48.914Z,82.95
2019-04-01T06:58:48.897Z,82.74
2019-04-01T06:59:48.912Z,82.43
2019-04-01T07:00:48.888Z,82.01
2019-04-01T07:01:48.870Z,81.91
2019-04-01T07:02:48.852Z,81.46
2019-04-01T07:03:48.842Z,81.56
2019-04-01T07:04:48.856Z,81.98
2019-04-01T07:05:48.827Z,81.67
2019-04-01T07:06:48.835Z,81.25
2019-04-01T07:09:50.624Z,80.84
2019-04-01T07:10:47.971Z,81.01
2019-04-01T07:11:47.951Z,80.49
2019-04-01T07:12:47.940Z,80.08
2019-04-01T07:13:47.930Z,79.83
2019-04-01T07:14:47.945Z,79.83
2019-04-01T07:15:47.931Z,78.91
2019-04-01T07:16:47.897Z,78.11
2019-04-01T07:17:47.889Z,77.98
2019-04-01T07:18:47.876Z,77.67
2019-04-01T07:19:47.882Z,78.18
2019-04-01T07:20:47.877Z,77.56
2019-04-01T07:21:47.843Z,76.08
2019-04-01T07:22:47.845Z,76.18
2019-04-01T07:23:47.827Z,76.29
2019-04-01T07:24:47.811Z,75.77
2019-04-01T07:25:47.829Z,75.43
2019-04-01T07:26:47.796Z,73.68
2019-04-01T07:27:47.784Z,73.47
2019-04-01T07:28:47.796Z,73.47
2019-04-01T07:29:47.760Z,74.26
2019-04-01T07:30:47.771Z,74.26
2019-04-01T07:31:47.735Z,74.33
2019-04-01T07:32:47.726Z,73.64
2019-04-01T07:33:47.713Z,73.09
2019-04-01T07:34:47.728Z,72.78
2019-04-01T07:35:47.715Z,71.75
2019-04-01T07:36:47.682Z,71.03
2019-04-01T07:37:47.676Z,70.20
2019-04-01T07:38:47.659Z,70.62
2019-04-01T07:39:47.647Z,70.20
2019-04-01T07:40:47.662Z,69.69
2019-04-01T07:41:47.626Z,69.96
2019-04-01T07:42:47.711Z,70.17
2019-04-01T07:43:47.602Z,69.86
2019-04-01T07:44:47.591Z,68.62
2019-04-01T07:45:47.680Z,68.52
2019-04-01T07:46:47.567Z,68.62
2019-04-01T07:47:47.610Z,68.59
2019-04-01T07:48:47.568Z,68.83
2019-04-01T07:49:47.556Z,69.01
2019-04-01T07:50:47.549Z,68.90
2019-04-01T07:51:47.513Z,67.97
2019-04-01T07:52:47.504Z,68.29
2019-04-01T07:53:47.497Z,68.05
2019-04-01T07:54:47.481Z,68.77
2019-04-01T07:55:47.492Z,67.84
2019-04-01T07:56:47.476Z,67.43
2019-04-01T07:57:47.446Z,67.12
2019-04-01T07:58:47.433Z,67.22
2019-04-01T07:59:47.425Z,66.81
2019-04-01T08:00:47.435Z,66.91
2019-04-01T08:01:47.401Z,67.53
2019-04-01T08:02:48.994Z,66.67
2019-04-01T08:03:47.380Z,66.71
2019-04-01T08:04:47.367Z,67.60
2019-04-01T08:05:47.390Z,67.43
2019-04-01T08:06:47.380Z,66.58
2019-04-01T08:07:47.336Z,66.88
2019-04-01T08:08:47.348Z,67.71
2019-04-01T08:09:47.313Z,67.40
2019-04-01T08:10:47.305Z,67.91
2019-04-01T08:11:50.025Z,66.75
2019-04-01T08:12:47.279Z,67.19
2019-04-01T08:13:47.266Z,67.26
2019-04-01T08:14:47.261Z,67.26
2019-04-01T08:15:47.245Z,66.13
2019-04-01T08:16:47.258Z,65.28
2019-04-01T08:17:47.224Z,65.62
2019-04-01T08:18:47.211Z,65.59
2019-04-01T08:19:47.208Z,66.20
2019-04-01T08:20:47.204Z,66.41
2019-04-01T08:21:47.204Z,66.10
2019-04-01T08:22:47.166Z,64.76
2019-04-01T08:23:47.185Z,64.32
2019-04-01T08:24:47.145Z,65.56
2019-04-01T08:25:48.074Z,64.73
2019-04-01T08:26:47.157Z,64.73
2019-04-01T08:27:47.117Z,65.42
2019-04-01T08:28:47.101Z,64.73
2019-04-01T08:29:47.091Z,64.40
2019-04-01T08:30:47.083Z,64.60
2019-04-01T08:31:47.091Z,63.78
2019-04-01T08:32:47.076Z,63.98
2019-04-01T08:33:50.150Z,64.50
2019-04-01T08:34:47.035Z,63.44
2019-04-01T08:35:47.024Z,64.26
2019-04-01T08:36:47.035Z,63.44
2019-04-01T08:37:46.999Z,63.96
2019-04-01T08:38:47.011Z,64.26
2019-04-01T08:39:46.978Z,63.24
2019-04-01T08:40:46.969Z,63.44
2019-04-01T08:41:46.977Z,63.44
2019-04-01T08:42:48.962Z,62.59
2019-04-01T08:43:46.939Z,62.62
2019-04-01T08:44:46.954Z,63.42
2019-04-01T08:45:46.915Z,62.90
2019-04-01T08:46:46.925Z,63.18
2019-04-01T08:47:46.890Z,63.28
2019-04-01T08:48:46.883Z,62.87
2019-04-01T08:49:46.872Z,62.87
2019-04-01T08:50:46.857Z,63.07
2019-04-01T08:51:46.844Z,62.87
2019-04-01T08:52:46.855Z,62.66
2019-04-01T08:53:46.833Z,62.36
2019-04-01T08:54:46.829Z,62.23
2019-04-01T08:55:46.798Z,61.92
2019-04-01T08:56:46.794Z,62.02
2019-04-01T08:57:46.799Z,61.82
2019-04-01T08:58:46.765Z,61.64
2019-04-01T08:59:46.756Z,61.92
2019-04-01T09:00:46.748Z,62.12
2019-04-01T09:01:46.734Z,62.12
2019-04-01T09:02:46.744Z,62.23
2019-04-01T09:03:46.711Z,60.97
2019-04-01T09:04:46.698Z,61.18
2019-04-01T09:05:46.701Z,60.56
2019-04-01T09:06:46.703Z,60.42
2019-04-01T09:07:46.688Z,61.15
2019-04-01T09:08:46.654Z,60.33
2019-04-01T09:09:46.643Z,60.19
2019-04-01T09:10:46.631Z,59.81
2019-04-01T09:11:46.623Z,58.66
2019-04-01T09:12:46.652Z,57.94
2019-04-01T09:13:46.599Z,58.43
2019-04-01T09:14:46.588Z,58.73
2019-04-01T09:15:46.579Z,58.94
2019-04-01T09:16:46.565Z,58.53
2019-04-01T09:17:46.579Z,58.84
2019-04-01T09:18:46.574Z,58.43
2019-04-01T09:19:46.544Z,58.40
2019-04-01T09:20:46.521Z,58.61
2019-04-01T09:21:46.512Z,58.50
2019-04-01T09:22:46.531Z,58.40
2019-04-01T09:23:46.489Z,58.70
2019-04-01T09:24:46.487Z,58.61
2019-04-01T09:25:46.475Z,57.99
2019-04-01T09:26:46.455Z,57.17
2019-04-01T09:27:46.475Z,57.76
2019-04-01T09:28:46.431Z,57.86
2019-04-01T09:29:46.419Z,58.45
2019-04-01T09:30:46.410Z,58.04
2019-04-01T09:31:46.414Z,57.02
2019-04-01T09:32:46.415Z,57.73
2019-04-01T09:33:46.379Z,55.97
2019-04-01T09:34:46.363Z,54.44
2019-04-01T09:35:46.363Z,55.87
2019-04-01T09:36:46.341Z,55.56
2019-04-01T09:37:46.381Z,55.76
2019-04-01T09:38:46.325Z,56.38
2019-04-01T09:39:46.309Z,55.74
2019-04-01T09:40:46.328Z,55.84
2019-04-01T09:41:46.290Z,55.74
2019-04-01T09:42:46.293Z,55.74
2019-04-01T09:43:46.300Z,56.02
2019-04-01T09:44:46.272Z,56.32
2019-04-01T09:45:46.242Z,55.71
2019-04-01T09:46:48.991Z,55.41
2019-04-01T09:47:46.266Z,55.30
2019-04-01T09:48:46.234Z,54.87
2019-04-01T09:49:46.210Z,54.77
2019-04-01T09:50:46.184Z,54.16
2019-04-01T09:51:48.823Z,54.16
2019-04-01T09:52:46.165Z,53.64
2019-04-01T09:53:46.175Z,54.74
2019-04-01T09:54:46.141Z,54.64
2019-04-01T09:55:46.136Z,54.11
2019-04-01T09:56:46.125Z,54.82
2019-04-01T09:57:46.110Z,53.90
2019-04-01T09:58:46.131Z,54.31
2019-04-01T09:59:46.093Z,52.27
2019-04-01T10:00:46.078Z,51.64
2019-04-01T10:01:46.068Z,51.84
2019-04-01T10:02:46.051Z,51.76
2019-04-01T10:03:46.064Z,52.15
2019-04-01T10:04:46.032Z,52.04
2019-04-01T10:05:46.052Z,52.12
2019-04-01T10:06:46.008Z,52.33
2019-04-01T10:07:46.153Z,50.19
2019-04-01T10:08:46.010Z,49.98
2019-04-01T10:09:45.995Z,50.78
2019-04-01T10:10:45.964Z,52.10
2019-04-01T10:11:45.952Z,51.48
2019-04-01T10:12:45.946Z,51.46
2019-04-01T10:13:45.957Z,51.87
2019-04-01T10:14:45.923Z,51.97
2019-04-01T10:15:45.906Z,51.75
2019-04-01T10:16:45.917Z,52.15
2019-04-01T10:17:45.883Z,51.64
2019-04-01T10:18:45.899Z,51.44
2019-04-01T10:19:45.861Z,51.95
2019-04-01T10:20:45.850Z,52.03
2019-04-01T10:21:45.846Z,50.81
2019-04-01T10:22:45.832Z,51.72
2019-04-01T10:23:45.859Z,51.31
2019-04-01T10:24:45.826Z,51.42
2019-04-01T10:25:45.798Z,51.59
2019-04-01T10:26:45.795Z,51.39
2019-04-01T10:27:45.773Z,50.56
2019-04-01T10:28:45.792Z,49.84
2019-04-01T10:29:45.753Z,50.45
2019-04-01T10:30:45.741Z,49.95
2019-04-01T10:31:45.729Z,49.74
2019-04-01T10:32:45.718Z,49.84
2019-04-01T10:33:45.710Z,50.15
2019-04-01T10:34:45.720Z,49.21
2019-04-01T10:35:45.687Z,48.91
2019-04-01T10:36:45.672Z,49.11
2019-04-01T10:37:45.695Z,49.52
2019-04-01T10:38:46.904Z,49.31
2019-04-01T10:39:45.667Z,49.49
2019-04-01T10:40:45.630Z,49.19
2019-04-01T10:41:45.616Z,49.27
2019-04-01T10:42:45.627Z,49.04
2019-04-01T10:43:45.593Z,48.35
2019-04-01T10:44:45.609Z,48.13
2019-04-01T10:45:45.601Z,48.94
2019-04-01T10:46:45.684Z,48.41
2019-04-01T10:47:45.603Z,47.39
2019-04-01T10:48:45.600Z,48.51
2019-04-01T10:49:45.646Z,47.98
2019-04-01T10:50:45.538Z,47.88
2019-04-01T10:51:45.539Z,48.18
2019-04-01T10:52:45.623Z,47.67
2019-04-01T10:53:45.509Z,47.55
2019-04-01T10:54:45.493Z,45.10
2019-04-01T10:55:45.469Z,45.61
2019-04-01T10:56:45.459Z,46.52
2019-04-01T10:57:45.444Z,46.62
2019-04-01T10:58:45.456Z,45.18
2019-04-01T10:59:45.481Z,45.69
2019-04-01T11:00:45.420Z,45.49
2019-04-01T11:01:45.484Z,45.59
2019-04-01T11:02:45.391Z,46.50
2019-04-01T11:03:45.463Z,45.39
2019-04-01T11:04:45.437Z,44.48
2019-04-01T11:05:45.354Z,44.56
2019-04-01T11:06:45.419Z,45.67
2019-04-01T11:07:45.352Z,45.54
2019-04-01T11:08:45.359Z,45.25
2019-04-01T11:09:45.325Z,45.65
2019-04-01T11:10:45.295Z,44.64
2019-04-01T11:11:45.284Z,44.13
2019-04-01T11:12:45.271Z,44.31
2019-04-01T11:13:45.287Z,43.20
2019-04-01T11:14:45.270Z,42.98
2019-04-01T11:15:45.288Z,43.79
2019-04-01T11:16:46.085Z,42.35
2019-04-01T11:17:45.219Z,42.86
2019-04-01T11:18:45.244Z,42.94
2019-04-01T11:19:45.234Z,43.54
2019-04-01T11:20:45.179Z,42.33
2019-04-01T11:21:45.172Z,43.54
2019-04-01T11:22:45.166Z,42.94
2019-04-01T11:23:45.199Z,40.92
2019-04-01T11:24:45.140Z,42.54
2019-04-01T11:25:45.149Z,43.04
2019-04-01T11:26:45.115Z,42.24
2019-04-01T11:27:45.107Z,42.11
2019-04-01T11:28:45.090Z,42.41
2019-04-01T11:29:45.082Z,42.32
2019-04-01T11:30:45.094Z,42.82
2019-04-01T11:31:45.120Z,42.72
2019-04-01T11:32:45.048Z,41.09
2019-04-01T11:33:45.103Z,40.78
2019-04-01T11:34:45.086Z,41.89
2019-04-01T11:35:46.017Z,41.47
2019-04-01T11:36:45.057Z,40.56
2019-04-01T11:37:45.012Z,40.46
2019-04-01T11:38:45.011Z,39.34
2019-04-01T11:39:45.012Z,40.34
2019-04-01T11:40:45.003Z,40.53
2019-04-01T11:41:44.959Z,40.02
2019-04-01T11:42:44.989Z,38.42
2019-04-01T11:43:45.000Z,39.62
2019-04-01T11:44:44.917Z,40.04
2019-04-01T11:45:44.949Z,40.12
2019-04-01T11:46:44.928Z,40.33
2019-04-01T11:47:44.900Z,39.82
2019-04-01T11:48:44.908Z,39.42
2019-04-01T11:49:44.928Z,39.00
2019-04-01T11:50:47.694Z,39.60
2019-04-01T11:51:44.854Z,38.90
2019-04-01T11:52:44.887Z,39.20
2019-04-01T11:53:44.820Z,40.12
2019-04-01T11:54:44.809Z,40.53
2019-04-01T11:55:44.823Z,40.11
2019-04-01T11:56:44.780Z,40.20
2019-04-01T11:57:44.785Z,39.90
2019-04-01T11:58:44.759Z,40.20
2019-04-01T11:59:44.746Z,39.28
2019-04-01T12:00:44.760Z,38.18
2019-04-01T12:01:44.730Z,39.69
2019-04-01T12:02:46.145Z,39.58
2019-04-01T12:03:44.746Z,37.67
2019-04-01T12:04:44.709Z,37.67
2019-04-01T12:05:44.688Z,37.99
2019-04-01T12:06:44.710Z,36.07
2019-04-01T12:07:44.660Z,37.39
2019-04-01T12:08:44.646Z,36.49
2019-04-01T12:09:44.648Z,36.89
2019-04-01T12:10:44.628Z,36.47
2019-04-01T12:11:44.638Z,38.07
2019-04-01T12:12:44.604Z,38.28
2019-04-01T12:13:44.600Z,38.78
2019-04-01T12:14:44.582Z,38.76
2019-04-01T12:15:44.586Z,38.36
2019-04-01T12:16:44.583Z,37.44
2019-04-01T12:17:44.553Z,38.34
2019-04-01T12:18:44.811Z,36.63
2019-04-01T12:19:44.539Z,37.44
2019-04-01T12:20:44.526Z,37.44
2019-04-01T12:21:44.536Z,37.65
2019-04-01T12:22:45.894Z,36.05
2019-04-01T12:23:44.480Z,36.45
2019-04-01T12:24:44.494Z,36.85
2019-04-01T12:25:44.458Z,36.73
2019-04-01T12:26:44.475Z,36.35
2019-04-01T12:27:45.293Z,38.26
2019-04-01T12:28:44.425Z,37.15
2019-04-01T12:29:48.000Z,36.73
2019-04-01T12:30:44.403Z,37.44
2019-04-01T12:31:44.428Z,37.13
2019-04-01T12:32:44.383Z,37.13
2019-04-01T12:33:44.379Z,37.35
2019-04-01T12:34:44.363Z,38.26
2019-04-01T12:35:44.360Z,37.44
2019-04-01T12:36:44.366Z,37.35
2019-04-01T12:37:45.834Z,38.36
2019-04-01T12:38:44.321Z,38.16
2019-04-01T12:39:44.306Z,37.44
2019-04-01T12:40:44.311Z,37.94
2019-04-01T12:41:44.318Z,37.24
2019-04-01T12:42:44.271Z,37.12
2019-04-01T12:43:44.262Z,37.32
2019-04-01T12:44:44.260Z,36.82
2019-04-01T12:45:44.240Z,36.52
2019-04-01T12:46:44.261Z,37.02
2019-04-01T12:47:44.216Z,36.32
2019-04-01T12:48:44.210Z,35.19
2019-04-01T12:49:44.197Z,35.10
2019-04-01T12:50:44.185Z,34.39
2019-04-01T12:51:44.179Z,34.41
2019-04-01T12:52:44.186Z,36.30
2019-04-01T12:53:44.153Z,36.60
2019-04-01T12:54:44.696Z,35.69